createdAt,value
2023-01-22T00:00:42.138Z,13.42
2023-01-22T00:03:08.991Z,13.52
2023-01-22T00:05:36.749Z,13.33
2023-01-22T00:08:03.594Z,13.14
2023-01-22T00:10:32.488Z,13.38
2023-01-22T00:12:59.272Z,13.10
2023-01-22T00:15:27.152Z,13.50
2023-01-22T00:17:54.467Z,13.43
2023-01-22T00:20:21.232Z,13.36
2023-01-22T00:22:47.952Z,13.58
2023-01-22T00:25:14.834Z,13.49
2023-01-22T00:27:41.866Z,13.70
2023-01-22T00:30:09.647Z,13.54
2023-01-22T00:32:36.399Z,13.62
2023-01-22T00:35:03.374Z,13.68
2023-01-22T00:37:30.135Z,13.65
2023-01-22T00:39:57.081Z,13.70
2023-01-22T00:42:24.083Z,13.76
2023-01-22T00:44:50.871Z,13.79
2023-01-22T00:47:17.607Z,12.34
2023-01-22T00:49:44.346Z,12.19
2023-01-22T00:52:11.273Z,12.14
2023-01-22T00:54:38.198Z,12.45
2023-01-22T00:57:05.280Z,12.55
2023-01-22T00:59:32.623Z,12.92
2023-01-22T01:01:59.586Z,12.89
2023-01-22T01:04:26.927Z,12.90
2023-01-22T01:06:55.406Z,13.12
2023-01-22T01:09:22.346Z,13.26
2023-01-22T01:11:49.197Z,13.33
2023-01-22T01:14:17.356Z,13.46
2023-01-22T01:16:44.284Z,13.53
2023-01-22T01:19:12.551Z,13.55
2023-01-22T01:21:39.326Z,13.50
2023-01-22T01:24:06.203Z,13.54
2023-01-22T01:26:34.770Z,13.46
2023-01-22T01:29:04.770Z,13.57
2023-01-22T01:31:31.793Z,13.57
2023-01-22T01:33:59.762Z,12.38
2023-01-22T01:36:47.210Z,12.62
2023-01-22T01:39:14.592Z,13.18
2023-01-22T01:41:42.306Z,13.25
2023-01-22T01:44:17.402Z,13.37
2023-01-22T01:47:07.910Z,13.47
2023-01-22T01:49:45.070Z,13.67
2023-01-22T01:52:13.108Z,13.58
2023-01-22T01:54:42.873Z,13.55
2023-01-22T01:57:15.300Z,13.57
2023-01-22T01:59:43.216Z,13.62
2023-01-22T02:02:10.543Z,13.64
2023-01-22T02:04:37.796Z,13.45
2023-01-22T02:07:05.568Z,13.64
2023-01-22T02:09:33.816Z,13.72
2023-01-22T02:12:02.168Z,13.66
2023-01-22T02:14:39.875Z,13.78
2023-01-22T02:17:24.831Z,13.56
2023-01-22T02:19:51.751Z,13.61
2023-01-22T02:22:31.120Z,13.61
2023-01-22T02:24:59.562Z,13.42
2023-01-22T02:27:27.407Z,13.14
2023-01-22T02:29:54.456Z,13.15
2023-01-22T02:32:21.960Z,12.78
2023-01-22T02:34:49.005Z,12.40
2023-01-22T02:37:15.968Z,12.67
2023-01-22T02:39:43.052Z,12.84
2023-01-22T02:42:10.451Z,12.95
2023-01-22T02:44:38.849Z,12.94
2023-01-22T02:47:06.154Z,13.03
2023-01-22T02:49:33.014Z,12.99
2023-01-22T02:52:01.039Z,12.83
2023-01-22T02:54:28.722Z,13.01
2023-01-22T02:56:56.783Z,12.96
2023-01-22T02:59:23.978Z,12.67
2023-01-22T03:01:51.875Z,12.40
2023-01-22T03:04:18.864Z,12.75
2023-01-22T03:07:05.719Z,12.74
2023-01-22T03:09:32.554Z,12.57
2023-01-22T03:11:59.227Z,12.38
2023-01-22T03:14:49.510Z,12.22
2023-01-22T03:17:36.114Z,12.60
2023-01-22T03:20:21.850Z,12.69
2023-01-22T03:22:48.687Z,12.65
2023-01-22T03:25:15.534Z,12.30
2023-01-22T03:28:03.718Z,12.33
2023-01-22T03:30:30.704Z,12.12
2023-01-22T03:32:58.097Z,12.38
2023-01-22T03:35:25.234Z,12.25
2023-01-22T03:38:12.382Z,12.60
2023-01-22T03:40:39.875Z,12.75
2023-01-22T03:43:06.928Z,12.88
2023-01-22T03:45:35.191Z,12.68
2023-01-22T03:48:03.941Z,12.65
2023-01-22T03:50:36.725Z,12.72
2023-01-22T03:53:04.190Z,12.77
2023-01-22T03:55:32.380Z,12.77
2023-01-22T03:57:59.352Z,12.42
2023-01-22T04:00:26.192Z,12.59
2023-01-22T04:02:54.110Z,12.34
2023-01-22T04:05:25.415Z,11.50
2023-01-22T04:07:52.505Z,11.76
2023-01-22T04:10:23.887Z,11.73
2023-01-22T04:12:51.066Z,11.75
2023-01-22T04:15:21.153Z,11.90
2023-01-22T04:17:49.670Z,12.34
2023-01-22T04:20:34.652Z,12.28
2023-01-22T04:23:29.823Z,12.26
2023-01-22T04:25:57.904Z,12.40
2023-01-22T04:28:25.448Z,12.30
2023-01-22T04:30:55.394Z,12.55
2023-01-22T04:33:36.208Z,12.54
2023-01-22T04:36:10.397Z,12.60
2023-01-22T04:38:37.558Z,12.63
2023-01-22T04:41:04.395Z,12.35
2023-01-22T04:43:31.238Z,12.13
2023-01-22T04:45:58.002Z,12.33
2023-01-22T04:48:29.483Z,12.34
2023-01-22T04:50:56.552Z,12.58
2023-01-22T04:53:26.330Z,12.58
2023-01-22T04:55:53.125Z,12.36
2023-01-22T04:58:21.088Z,12.32
2023-01-22T05:00:48.290Z,12.31
2023-01-22T05:03:15.239Z,12.28
2023-01-22T05:05:42.399Z,12.33
2023-01-22T05:08:09.118Z,12.37
2023-01-22T05:10:36.946Z,12.48
2023-01-22T05:13:07.092Z,12.60
2023-01-22T05:15:35.297Z,12.57
2023-01-22T05:18:09.509Z,12.57
2023-01-22T05:20:39.214Z,12.58
2023-01-22T05:23:07.529Z,12.49
2023-01-22T05:25:34.257Z,12.51
2023-01-22T05:28:04.185Z,12.39
2023-01-22T05:30:43.868Z,12.39
2023-01-22T05:33:37.225Z,12.15
2023-01-22T05:36:07.387Z,12.24
2023-01-22T05:38:35.846Z,12.28
2023-01-22T05:41:02.759Z,12.34
2023-01-22T05:43:38.021Z,12.23
2023-01-22T05:46:08.203Z,12.16
2023-01-22T05:48:40.953Z,12.30
2023-01-22T05:51:14.298Z,12.27
2023-01-22T05:53:41.403Z,12.21
2023-01-22T05:56:08.640Z,12.19
2023-01-22T05:58:38.488Z,12.36
2023-01-22T06:01:06.048Z,12.08
2023-01-22T06:03:39.831Z,12.31
2023-01-22T06:06:11.105Z,12.57
2023-01-22T06:08:38.936Z,12.46
2023-01-22T06:11:10.069Z,12.23
2023-01-22T06:13:38.530Z,12.49
2023-01-22T06:16:14.894Z,12.43
2023-01-22T06:19:12.468Z,12.23
2023-01-22T06:21:50.869Z,12.42
2023-01-22T06:24:19.184Z,12.35
2023-01-22T06:26:46.904Z,12.54
2023-01-22T06:29:15.047Z,12.59
2023-01-22T06:31:43.016Z,12.00
2023-01-22T06:34:14.631Z,11.47
2023-01-22T06:36:43.516Z,11.48
2023-01-22T06:39:10.912Z,12.15
2023-01-22T06:41:55.252Z,12.20
2023-01-22T06:44:23.279Z,12.39
2023-01-22T06:46:54.305Z,12.42
2023-01-22T06:49:27.084Z,12.48
2023-01-22T06:51:55.784Z,12.21
2023-01-22T06:54:23.408Z,11.45
2023-01-22T06:56:50.134Z,11.00
2023-01-22T06:59:18.224Z,10.38
2023-01-22T07:01:45.103Z,11.10
2023-01-22T07:04:12.079Z,11.44
2023-01-22T07:06:38.786Z,11.38
2023-01-22T07:09:06.658Z,11.69
2023-01-22T07:11:33.736Z,10.62
2023-01-22T07:14:00.635Z,10.93
2023-01-22T07:16:27.437Z,11.44
2023-01-22T07:18:54.354Z,11.23
2023-01-22T07:21:21.093Z,11.60
2023-01-22T07:23:48.151Z,10.84
2023-01-22T07:26:15.953Z,11.70
2023-01-22T07:28:43.994Z,12.34
2023-01-22T07:31:11.845Z,12.31
2023-01-22T07:33:38.746Z,12.55
2023-01-22T07:36:06.212Z,12.62
2023-01-22T07:38:32.995Z,11.86
2023-01-22T07:41:01.260Z,12.17
2023-01-22T07:43:32.407Z,12.73
2023-01-22T07:46:03.816Z,12.61
2023-01-22T07:48:30.918Z,12.76
2023-01-22T07:51:05.275Z,13.02
2023-01-22T07:53:33.579Z,13.24
2023-01-22T07:56:04.011Z,13.25
2023-01-22T07:58:30.872Z,13.39
2023-01-22T08:00:57.725Z,13.53
2023-01-22T08:03:24.575Z,13.56
2023-01-22T08:05:51.469Z,13.68
2023-01-22T08:08:22.439Z,13.68
2023-01-22T08:10:49.283Z,13.51
2023-01-22T08:13:16.120Z,13.63
2023-01-22T08:15:43.849Z,13.59
2023-01-22T08:18:11.851Z,13.56
2023-01-22T08:20:38.714Z,13.44
2023-01-22T08:23:05.820Z,13.75
2023-01-22T08:25:32.862Z,14.00
2023-01-22T08:28:02.953Z,14.11
2023-01-22T08:30:29.615Z,14.10
2023-01-22T08:32:56.467Z,14.15
2023-01-22T08:35:24.556Z,14.22
2023-01-22T08:37:51.290Z,14.16
2023-01-22T08:40:18.694Z,14.35
2023-01-22T08:42:54.466Z,14.54
2023-01-22T08:45:22.317Z,14.27
2023-01-22T08:47:49.035Z,14.23
2023-01-22T08:50:16.505Z,14.36
2023-01-22T08:52:43.455Z,14.34
2023-01-22T08:55:10.466Z,14.25
2023-01-22T08:57:37.494Z,14.51
2023-01-22T09:00:05.777Z,14.59
2023-01-22T09:02:33.459Z,14.73
2023-01-22T09:05:00.325Z,14.86
2023-01-22T09:07:27.038Z,14.94
2023-01-22T09:09:54.014Z,15.09
2023-01-22T09:12:20.829Z,14.89
2023-01-22T09:14:47.670Z,15.23
2023-01-22T09:17:14.404Z,15.44
2023-01-22T09:19:41.146Z,15.51
2023-01-22T09:22:07.990Z,15.45
2023-01-22T09:24:34.949Z,15.35
2023-01-22T09:27:01.787Z,15.24
2023-01-22T09:29:28.708Z,15.02
2023-01-22T09:31:56.432Z,15.35
2023-01-22T09:34:23.321Z,15.22
2023-01-22T09:36:50.243Z,15.48
2023-01-22T09:39:17.465Z,15.62
2023-01-22T09:41:49.033Z,15.53
2023-01-22T09:44:20.343Z,15.55
2023-01-22T09:47:07.873Z,15.45
2023-01-22T09:50:00.759Z,15.81
2023-01-22T09:52:33.722Z,15.56
2023-01-22T09:55:00.792Z,15.87
2023-01-22T09:57:32.191Z,15.79
2023-01-22T09:59:59.798Z,15.72
2023-01-22T10:02:30.920Z,15.93
2023-01-22T10:05:16.485Z,16.07
2023-01-22T10:07:55.631Z,16.19
2023-01-22T10:10:27.322Z,16.06
2023-01-22T10:13:01.679Z,16.07
2023-01-22T10:15:28.595Z,15.83
2023-01-22T10:17:57.355Z,16.26
2023-01-22T10:20:26.375Z,16.24
2023-01-22T10:22:56.030Z,16.48
2023-01-22T10:25:23.072Z,16.42
2023-01-22T10:27:59.479Z,16.20
2023-01-22T10:30:27.871Z,16.35
2023-01-22T10:33:03.362Z,16.55
2023-01-22T10:35:32.058Z,16.24
2023-01-22T10:38:00.607Z,16.29
2023-01-22T10:40:38.161Z,16.26
2023-01-22T10:43:10.129Z,15.97
2023-01-22T10:45:37.521Z,15.20
2023-01-22T10:48:12.707Z,15.89
2023-01-22T10:50:40.471Z,15.62
2023-01-22T10:53:34.454Z,16.04
2023-01-22T10:56:04.504Z,15.57
2023-01-22T10:58:34.924Z,15.45
2023-01-22T11:01:22.004Z,15.42
2023-01-22T11:03:49.098Z,15.89
2023-01-22T11:06:20.679Z,15.72
2023-01-22T11:09:00.432Z,16.28
2023-01-22T11:11:41.785Z,16.43
2023-01-22T11:14:20.371Z,16.33
2023-01-22T11:16:51.314Z,16.92
2023-01-22T11:19:32.641Z,17.18
2023-01-22T11:22:14.451Z,17.40
2023-01-22T11:24:47.380Z,17.67
2023-01-22T11:27:22.846Z,17.46
2023-01-22T11:29:55.906Z,17.59
2023-01-22T11:32:55.325Z,17.75
2023-01-22T11:35:47.629Z,18.19
2023-01-22T11:38:33.201Z,18.20
2023-01-22T11:41:16.932Z,17.64
2023-01-22T11:44:06.329Z,17.96
2023-01-22T11:46:44.014Z,18.37
2023-01-22T11:49:22.367Z,18.13
2023-01-22T11:51:51.750Z,18.48
2023-01-22T11:54:25.406Z,18.11
2023-01-22T11:57:03.012Z,18.47
2023-01-22T11:59:51.772Z,19.18
2023-01-22T12:02:30.253Z,19.22
2023-01-22T12:05:07.429Z,19.88
2023-01-22T12:08:02.143Z,20.20
2023-01-22T12:10:58.705Z,20.42
2023-01-22T12:13:44.297Z,21.39
2023-01-22T12:16:40.479Z,22.23
2023-01-22T12:19:10.072Z,22.96
2023-01-22T12:22:09.381Z,24.17
2023-01-22T12:25:03.686Z,25.64
2023-01-22T12:27:39.075Z,26.36
2023-01-22T12:30:17.016Z,26.54
2023-01-22T12:32:48.629Z,27.03
2023-01-22T12:35:21.370Z,27.40
2023-01-22T12:37:54.882Z,27.26
2023-01-22T12:41:00.396Z,27.61
2023-01-22T12:43:35.160Z,27.94
2023-01-22T12:46:27.168Z,28.46
2023-01-22T12:49:03.960Z,28.30
2023-01-22T12:51:46.993Z,28.12
2023-01-22T12:54:37.504Z,28.40
2023-01-22T12:57:17.411Z,29.06
2023-01-22T12:59:46.258Z,28.83
2023-01-22T13:02:22.122Z,29.08
2023-01-22T13:04:49.182Z,28.31
2023-01-22T13:07:27.235Z,28.05
2023-01-22T13:10:25.179Z,28.38
2023-01-22T13:12:55.146Z,29.30
2023-01-22T13:15:26.105Z,29.35
2023-01-22T13:18:08.065Z,28.41
2023-01-22T13:20:45.721Z,28.54
2023-01-22T13:23:13.981Z,29.12
2023-01-22T13:25:42.833Z,27.92
2023-01-22T13:28:16.883Z,28.32
2023-01-22T13:30:54.933Z,28.28
2023-01-22T13:33:21.939Z,28.25
2023-01-22T13:35:49.354Z,28.47
2023-01-22T13:38:27.661Z,28.73
2023-01-22T13:40:59.893Z,27.88
2023-01-22T13:43:27.729Z,27.01
2023-01-22T13:45:58.494Z,26.92
2023-01-22T13:48:26.719Z,25.35
2023-01-22T13:51:03.425Z,26.32
2023-01-22T13:53:43.956Z,26.61
2023-01-22T13:56:19.186Z,25.67
2023-01-22T13:58:48.695Z,25.66
2023-01-22T14:01:31.780Z,24.66
2023-01-22T14:04:07.233Z,22.28
2023-01-22T14:06:49.687Z,19.93
2023-01-22T14:09:52.771Z,19.56
2023-01-22T14:12:22.596Z,18.78
2023-01-22T14:14:49.522Z,18.60
2023-01-22T14:17:25.244Z,18.38
2023-01-22T14:19:52.342Z,18.63
2023-01-22T14:22:19.278Z,18.19
2023-01-22T14:24:46.115Z,18.48
2023-01-22T14:27:13.256Z,18.56
2023-01-22T14:29:40.346Z,18.02
2023-01-22T14:32:07.061Z,18.20
2023-01-22T14:34:33.806Z,18.03
2023-01-22T14:37:00.593Z,18.28
2023-01-22T14:39:27.455Z,18.32
2023-01-22T14:41:54.208Z,17.83
2023-01-22T14:44:21.123Z,17.71
2023-01-22T14:46:48.797Z,17.83
2023-01-22T14:49:15.613Z,17.79
2023-01-22T14:51:42.472Z,17.82
2023-01-22T14:54:09.176Z,17.34
2023-01-22T14:56:35.862Z,17.37
2023-01-22T14:59:04.700Z,17.00
2023-01-22T15:01:31.443Z,17.07
2023-01-22T15:03:58.226Z,17.44
2023-01-22T15:06:25.137Z,17.70
2023-01-22T15:08:52.805Z,17.60
2023-01-22T15:11:19.549Z,17.64
2023-01-22T15:13:46.530Z,17.33
2023-01-22T15:16:13.601Z,17.30
2023-01-22T15:18:40.878Z,17.61
2023-01-22T15:21:10.499Z,17.38
2023-01-22T15:23:37.420Z,17.64
2023-01-22T15:26:20.431Z,17.48
2023-01-22T15:28:47.348Z,17.57
2023-01-22T15:31:14.074Z,17.41
2023-01-22T15:33:41.009Z,17.23
2023-01-22T15:36:08.611Z,17.42
2023-01-22T15:38:35.372Z,17.34
2023-01-22T15:41:26.641Z,16.72
2023-01-22T15:43:56.095Z,16.86
2023-01-22T15:46:25.054Z,16.89
2023-01-22T15:48:52.756Z,17.09
2023-01-22T15:51:20.540Z,17.29
2023-01-22T15:53:52.050Z,17.28
2023-01-22T15:56:21.041Z,17.23
2023-01-22T15:58:50.315Z,17.29
2023-01-22T16:01:18.407Z,17.00
2023-01-22T16:03:45.800Z,17.19
2023-01-22T16:06:15.153Z,17.14
2023-01-22T16:08:43.446Z,17.14
2023-01-22T16:11:10.691Z,17.07
2023-01-22T16:13:37.831Z,17.15
2023-01-22T16:16:08.006Z,17.21
2023-01-22T16:18:35.794Z,17.18
2023-01-22T16:21:07.136Z,16.92
2023-01-22T16:23:37.555Z,15.99
2023-01-22T16:26:13.242Z,16.79
2023-01-22T16:28:40.863Z,16.18
2023-01-22T16:31:09.690Z,16.54
2023-01-22T16:33:39.197Z,16.55
2023-01-22T16:36:10.087Z,16.20
2023-01-22T16:38:37.111Z,16.25
2023-01-22T16:41:26.287Z,16.20
2023-01-22T16:43:59.411Z,16.06
2023-01-22T16:46:32.103Z,16.45
2023-01-22T16:49:07.790Z,15.87
2023-01-22T16:51:39.899Z,15.65
2023-01-22T16:54:07.620Z,16.03
2023-01-22T16:56:36.575Z,15.74
2023-01-22T16:59:03.551Z,15.54
2023-01-22T17:01:30.982Z,15.62
2023-01-22T17:03:57.741Z,15.48
2023-01-22T17:06:32.537Z,15.46
2023-01-22T17:09:00.181Z,15.62
2023-01-22T17:11:27.135Z,15.74
2023-01-22T17:13:54.291Z,15.88
2023-01-22T17:16:21.081Z,16.11
2023-01-22T17:18:48.088Z,15.81
2023-01-22T17:21:18.130Z,15.57
2023-01-22T17:23:45.315Z,15.40
2023-01-22T17:26:14.571Z,15.69
2023-01-22T17:28:42.076Z,15.18
2023-01-22T17:31:11.855Z,15.86
2023-01-22T17:33:39.262Z,16.13
2023-01-22T17:36:07.075Z,16.07
2023-01-22T17:38:38.361Z,15.92
2023-01-22T17:41:12.343Z,16.13
2023-01-22T17:43:39.175Z,16.38
2023-01-22T17:46:12.426Z,16.43
2023-01-22T17:48:39.746Z,16.53
2023-01-22T17:51:09.579Z,16.19
2023-01-22T17:53:41.826Z,16.30
2023-01-22T17:56:19.112Z,15.68
2023-01-22T17:58:54.080Z,15.96
2023-01-22T18:01:23.910Z,16.17
2023-01-22T18:03:51.333Z,16.25
2023-01-22T18:06:19.278Z,16.26
2023-01-22T18:08:46.187Z,16.29
2023-01-22T18:11:16.580Z,16.33
2023-01-22T18:13:44.384Z,16.25
2023-01-22T18:16:14.149Z,16.36
2023-01-22T18:18:41.690Z,16.38
2023-01-22T18:21:14.166Z,16.22
2023-01-22T18:23:41.079Z,16.27
2023-01-22T18:26:08.708Z,16.25
2023-01-22T18:28:36.436Z,16.16
2023-01-22T18:31:10.942Z,16.40
2023-01-22T18:33:38.612Z,16.18
2023-01-22T18:36:10.693Z,16.37
2023-01-22T18:38:37.975Z,16.21
2023-01-22T18:41:12.184Z,16.08
2023-01-22T18:43:40.000Z,16.25
2023-01-22T18:46:10.679Z,16.28
2023-01-22T18:48:39.572Z,16.22
2023-01-22T18:51:09.076Z,16.28
2023-01-22T18:53:36.423Z,16.12
2023-01-22T18:56:06.346Z,16.16
2023-01-22T18:58:36.215Z,16.17
2023-01-22T19:01:26.992Z,16.31
2023-01-22T19:03:58.277Z,16.23
2023-01-22T19:06:30.784Z,16.15
2023-01-22T19:09:03.534Z,16.06
2023-01-22T19:11:32.318Z,16.04
2023-01-22T19:14:00.625Z,16.15
2023-01-22T19:16:28.203Z,16.06
2023-01-22T19:18:57.135Z,16.10
2023-01-22T19:21:25.769Z,16.23
2023-01-22T19:23:57.659Z,16.24
2023-01-22T19:26:31.205Z,16.35
2023-01-22T19:29:04.640Z,16.10
2023-01-22T19:31:32.931Z,16.21
2023-01-22T19:34:01.174Z,16.03
2023-01-22T19:36:31.247Z,16.18
2023-01-22T19:39:00.775Z,16.21
2023-01-22T19:41:28.453Z,16.18
2023-01-22T19:43:57.355Z,16.17
2023-01-22T19:46:26.071Z,16.32
2023-01-22T19:48:53.617Z,16.10
2023-01-22T19:51:27.013Z,16.17
2023-01-22T19:53:54.826Z,15.72
2023-01-22T19:56:27.191Z,15.70
2023-01-22T19:58:59.294Z,15.75
2023-01-22T20:01:26.643Z,15.27
2023-01-22T20:03:54.901Z,15.55
2023-01-22T20:06:23.301Z,15.76
2023-01-22T20:08:50.472Z,15.62
2023-01-22T20:11:17.978Z,15.48
2023-01-22T20:13:44.832Z,15.57
2023-01-22T20:16:22.274Z,15.77
2023-01-22T20:18:50.571Z,15.75
2023-01-22T20:21:20.577Z,15.88
2023-01-22T20:23:50.114Z,15.81
2023-01-22T20:26:18.819Z,15.11
2023-01-22T20:28:46.677Z,14.86
2023-01-22T20:31:17.411Z,14.54
2023-01-22T20:33:44.197Z,15.01
2023-01-22T20:36:15.142Z,15.25
2023-01-22T20:38:43.752Z,15.04
2023-01-22T20:41:10.659Z,14.98
2023-01-22T20:43:39.514Z,15.28
2023-01-22T20:46:16.125Z,15.46
2023-01-22T20:48:43.591Z,15.35
2023-01-22T20:51:17.008Z,15.50
2023-01-22T20:53:48.636Z,15.37
2023-01-22T20:56:20.961Z,15.19
2023-01-22T20:58:47.824Z,15.37
2023-01-22T21:01:19.157Z,15.56
2023-01-22T21:03:47.953Z,15.52
2023-01-22T21:06:17.910Z,15.50
2023-01-22T21:08:51.881Z,15.27
2023-01-22T21:11:20.687Z,15.09
2023-01-22T21:13:49.419Z,14.94
2023-01-22T21:16:19.008Z,15.01
2023-01-22T21:18:46.604Z,14.93
2023-01-22T21:21:18.311Z,15.10
2023-01-22T21:23:47.734Z,14.90
2023-01-22T21:26:16.281Z,15.03
2023-01-22T21:28:43.136Z,14.58
2023-01-22T21:31:13.129Z,14.55
2023-01-22T21:33:41.131Z,13.86
2023-01-22T21:36:09.421Z,14.54
2023-01-22T21:38:37.165Z,14.98
2023-01-22T21:41:12.657Z,14.94
2023-01-22T21:44:03.315Z,15.01
2023-01-22T21:46:33.892Z,15.07
2023-01-22T21:49:02.412Z,15.27
2023-01-22T21:51:30.974Z,15.42
2023-01-22T21:53:58.648Z,15.33
2023-01-22T21:56:26.639Z,15.39
2023-01-22T21:58:53.495Z,15.33
2023-01-22T22:01:21.979Z,15.71
2023-01-22T22:03:49.122Z,15.71
2023-01-22T22:06:16.009Z,15.55
2023-01-22T22:08:44.412Z,15.68
2023-01-22T22:11:13.473Z,15.77
2023-01-22T22:13:41.117Z,15.85
2023-01-22T22:16:10.049Z,15.62
2023-01-22T22:18:37.296Z,15.52
2023-01-22T22:21:06.819Z,15.62
2023-01-22T22:23:35.322Z,15.59
2023-01-22T22:26:05.163Z,15.67
2023-01-22T22:28:34.826Z,15.45
2023-01-22T22:31:03.792Z,15.36
2023-01-22T22:33:30.739Z,15.50
2023-01-22T22:35:59.923Z,15.39
2023-01-22T22:38:26.597Z,15.61
2023-01-22T22:41:05.668Z,15.39
2023-01-22T22:43:38.002Z,15.55
2023-01-22T22:46:12.729Z,15.42
2023-01-22T22:48:39.859Z,15.39
2023-01-22T22:51:15.588Z,15.35
2023-01-22T22:53:42.523Z,15.42
2023-01-22T22:56:10.703Z,15.08
2023-01-22T22:58:37.911Z,15.19
2023-01-22T23:01:19.321Z,15.56
2023-01-22T23:03:46.496Z,15.67
2023-01-22T23:06:19.232Z,15.77
2023-01-22T23:08:55.649Z,15.56
2023-01-22T23:11:28.273Z,15.53
2023-01-22T23:14:01.206Z,15.56
2023-01-22T23:16:31.786Z,15.40
2023-01-22T23:19:00.692Z,15.30
2023-01-22T23:21:28.602Z,15.09
2023-01-22T23:23:55.848Z,15.55
2023-01-22T23:26:28.243Z,15.74
2023-01-22T23:28:57.946Z,15.46
2023-01-22T23:31:26.069Z,15.65
2023-01-22T23:33:54.982Z,15.86
2023-01-22T23:36:22.637Z,15.86
2023-01-22T23:38:49.852Z,15.64
2023-01-22T23:41:18.225Z,15.54
2023-01-22T23:43:45.859Z,15.71
2023-01-22T23:46:27.194Z,15.89
2023-01-22T23:48:55.887Z,15.90
2023-01-22T23:51:22.910Z,15.61
2023-01-22T23:53:51.946Z,15.83
2023-01-22T23:56:21.460Z,15.93
2023-01-22T23:58:48.343Z,15.80
